Time;durP1;ratioP1;P1;durP2;ratioP2;P2;SDS_P1;SDS_P2;PMS_P1;PMS_P2;Temp;Humidity;BMP_temperature;BMP_pressure;BME280_temperature;BME280_humidity;BME280_pressure;Samples;Min_cycle;Max_cycle;Signal;HPM_P1;HPM_P2
2021/01/17 00:00:51;;;;;;;7.90;3.90;;;28.70;14.10;;;;;;5102282;28;20103;-67
2021/01/17 00:03:19;;;;;;;17.40;4.32;;;28.80;14.30;;;;;;5102365;28;20028;-65
2021/01/17 00:05:47;;;;;;;11.98;3.92;;;28.90;14.70;;;;;;5107068;28;20027;-67
2021/01/17 00:08:14;;;;;;;12.07;4.05;;;28.80;14.50;;;;;;5090978;28;20377;-70
2021/01/17 00:10:41;;;;;;;9.32;3.38;;;28.70;14.60;;;;;;5091160;28;20032;-68
2021/01/17 00:13:09;;;;;;;18.58;4.32;;;28.50;15.00;;;;;;5088668;28;20120;-67
2021/01/17 00:15:39;;;;;;;11.73;4.25;;;28.40;15.40;;;;;;5103049;27;20028;-67
2021/01/17 00:18:06;;;;;;;14.02;4.70;;;28.30;15.20;;;;;;5088605;28;20035;-67
2021/01/17 00:20:33;;;;;;;8.88;3.38;;;28.20;15.50;;;;;;5101522;28;20051;-66
2021/01/17 00:23:05;;;;;;;10.43;2.65;;;28.00;15.80;;;;;;5105632;28;20020;-67
2021/01/17 00:25:32;;;;;;;7.95;1.70;;;28.00;15.80;;;;;;5087965;28;20039;-67
2021/01/17 00:27:59;;;;;;;5.80;1.60;;;27.90;14.90;;;;;;5107262;28;20039;-66
2021/01/17 00:30:28;;;;;;;10.25;2.20;;;27.80;15.10;;;;;;5085693;28;20033;-66
2021/01/17 00:32:57;;;;;;;10.00;1.92;;;27.70;15.10;;;;;;5104816;28;20012;-67
2021/01/17 00:35:25;;;;;;;8.48;2.00;;;27.60;15.10;;;;;;5103031;28;20357;-66
2021/01/17 00:37:56;;;;;;;12.07;3.33;;;27.50;16.40;;;;;;5102840;28;20044;-67
2021/01/17 00:40:24;;;;;;;16.15;3.05;;;27.30;17.40;;;;;;5088065;28;20445;-65
2021/01/17 00:42:52;;;;;;;14.43;2.35;;;27.20;17.40;;;;;;5105024;28;20024;-65
2021/01/17 00:45:30;;;;;;;14.38;2.58;;;27.00;17.60;;;;;;5099159;28;20035;-67
2021/01/17 00:47:57;;;;;;;7.55;2.80;;;26.80;17.90;;;;;;5106975;28;20107;-66
2021/01/17 00:50:25;;;;;;;13.98;4.63;;;26.50;17.80;;;;;;5089651;28;20391;-66
2021/01/17 00:52:56;;;;;;;18.27;4.60;;;26.40;18.50;;;;;;5107779;28;21393;-67
2021/01/17 00:55:23;;;;;;;11.10;4.07;;;26.20;18.80;;;;;;5108661;28;20028;-64
2021/01/17 00:57:50;;;;;;;24.17;5.20;;;25.90;18.60;;;;;;5108379;28;21395;-66
2021/01/17 01:00:24;;;;;;;39.92;7.70;;;25.60;18.70;;;;;;5109911;28;20030;-65
2021/01/17 01:02:50;;;;;;;22.40;7.60;;;25.40;19.70;;;;;;5109710;28;20035;-65
2021/01/17 01:05:17;;;;;;;25.75;9.15;;;25.20;19.10;;;;;;5100081;28;20024;-66
2021/01/17 01:07:44;;;;;;;57.88;28.42;;;25.00;20.10;;;;;;5090790;28;20035;-65
2021/01/17 01:10:12;;;;;;;76.57;44.75;;;24.90;20.20;;;;;;5086479;28;20104;-66
2021/01/17 01:12:39;;;;;;;465.10;341.77;;;24.60;20.80;;;;;;5089525;28;20024;-65
2021/01/17 01:15:07;;;;;;;275.27;190.43;;;24.50;21.70;;;;;;5104164;28;20096;-64
2021/01/17 01:17:34;;;;;;;104.75;61.53;;;24.30;21.50;;;;;;5104395;28;20019;-65
2021/01/17 01:20:02;;;;;;;125.10;77.50;;;24.20;21.10;;;;;;5106164;28;20080;-66
2021/01/17 01:22:28;;;;;;;116.07;67.65;;;24.00;21.50;;;;;;5089261;28;20026;-66
2021/01/17 01:24:55;;;;;;;123.40;61.70;;;23.80;21.80;;;;;;5105898;28;20039;-67
2021/01/17 01:27:22;;;;;;;164.68;56.72;;;23.70;22.60;;;;;;5105877;28;20452;-65
2021/01/17 01:29:48;;;;;;;164.02;49.95;;;23.50;22.70;;;;;;5086717;28;20031;-65
2021/01/17 01:32:15;;;;;;;105.35;37.13;;;23.30;23.60;;;;;;5088927;28;20054;-66
2021/01/17 01:34:42;;;;;;;79.65;33.58;;;23.20;23.80;;;;;;5099752;28;20040;-66
2021/01/17 01:37:08;;;;;;;67.43;25.48;;;23.10;23.70;;;;;;5087341;28;20036;-65
2021/01/17 01:39:38;;;;;;;57.08;21.05;;;22.90;24.10;;;;;;5108226;28;20012;-66
2021/01/17 01:42:08;;;;;;;53.20;15.68;;;22.80;24.60;;;;;;5102242;28;20027;-66
2021/01/17 01:44:35;;;;;;;41.30;16.17;;;22.70;24.90;;;;;;5105394;28;20515;-65
2021/01/17 01:47:02;;;;;;;41.70;14.57;;;22.60;24.80;;;;;;5107926;28;20050;-67
2021/01/17 01:49:29;;;;;;;81.97;40.35;;;22.50;24.90;;;;;;5087452;28;20039;-66
2021/01/17 01:52:00;;;;;;;154.70;85.03;;;22.30;24.90;;;;;;5106999;28;20111;-67
2021/01/17 01:54:27;;;;;;;151.77;84.80;;;22.20;25.00;;;;;;5107839;28;20020;-66
2021/01/17 01:56:54;;;;;;;121.18;64.25;;;22.10;25.00;;;;;;5106665;28;20027;-67
2021/01/17 01:59:21;;;;;;;91.80;48.00;;;22.00;25.10;;;;;;5088485;28;20111;-68
2021/01/17 02:01:49;;;;;;;84.63;41.90;;;21.90;25.40;;;;;;5087976;28;20038;-67
2021/01/17 02:04:16;;;;;;;83.97;39.95;;;21.70;25.80;;;;;;5109741;28;21176;-66
2021/01/17 02:07:08;;;;;;;79.45;38.00;;;21.60;26.10;;;;;;5104828;28;20032;-66
2021/01/17 02:09:38;;;;;;;80.07;38.80;;;21.60;26.50;;;;;;5097176;28;20027;-66
2021/01/17 02:12:20;;;;;;;88.93;39.75;;;21.50;26.90;;;;;;5103950;28;20032;-67
2021/01/17 02:15:07;;;;;;;88.78;40.47;;;21.40;27.30;;;;;;5088226;28;20034;-67
2021/01/17 02:17:35;;;;;;;86.80;35.80;;;21.20;27.40;;;;;;5081731;28;20043;-68
2021/01/17 02:20:25;;;;;;;80.50;36.00;;;21.10;28.20;;;;;;5089190;28;20027;-68
2021/01/17 02:23:00;;;;;;;68.22;29.48;;;21.10;28.30;;;;;;5104384;28;20513;-67
2021/01/17 02:25:32;;;;;;;74.88;25.60;;;20.90;28.60;;;;;;5106509;27;20040;-67
2021/01/17 02:28:02;;;;;;;55.13;21.73;;;20.80;28.80;;;;;;5110078;28;20483;-67
2021/01/17 02:30:33;;;;;;;61.97;19.70;;;20.80;29.30;;;;;;5087545;28;20024;-68
2021/01/17 02:33:14;;;;;;;49.63;18.55;;;20.70;29.20;;;;;;5104703;28;20027;-68
2021/01/17 02:35:42;;;;;;;47.95;17.08;;;20.60;29.30;;;;;;5092565;28;20044;-68
2021/01/17 02:38:12;;;;;;;54.00;17.33;;;20.50;30.00;;;;;;5105973;28;20425;-68
2021/01/17 02:40:47;;;;;;;57.58;16.65;;;20.40;29.90;;;;;;5100880;28;20024;-67
2021/01/17 02:43:14;;;;;;;50.55;17.77;;;20.30;29.90;;;;;;5101881;28;20098;-68
2021/01/17 02:45:41;;;;;;;53.42;17.20;;;20.20;30.00;;;;;;5104944;28;20414;-67
2021/01/17 02:48:09;;;;;;;49.35;16.52;;;20.10;30.00;;;;;;5087501;28;20016;-67
2021/01/17 02:50:38;;;;;;;62.53;20.55;;;20.10;30.20;;;;;;5102986;28;20028;-69
2021/01/17 02:53:27;;;;;;;63.65;20.58;;;20.00;30.00;;;;;;5086950;28;20380;-67
2021/01/17 02:55:56;;;;;;;70.88;21.48;;;19.90;30.30;;;;;;5105119;28;20106;-69
2021/01/17 02:58:25;;;;;;;64.93;22.45;;;19.90;30.80;;;;;;5098944;28;20019;-69
2021/01/17 03:00:56;;;;;;;91.05;28.10;;;19.80;31.20;;;;;;5109096;28;20141;-68
2021/01/17 03:03:31;;;;;;;86.72;31.98;;;19.80;31.70;;;;;;5108417;28;20023;-67
2021/01/17 03:06:00;;;;;;;83.28;29.55;;;19.70;32.10;;;;;;5106337;28;20038;-68
2021/01/17 03:08:28;;;;;;;101.47;30.83;;;19.70;32.10;;;;;;5088322;28;20023;-67
2021/01/17 03:10:55;;;;;;;72.65;29.15;;;19.60;32.30;;;;;;5085234;28;20020;-67
2021/01/17 03:13:23;;;;;;;74.38;26.00;;;19.60;32.30;;;;;;5105907;28;20016;-67
2021/01/17 03:15:51;;;;;;;72.05;24.80;;;19.50;32.40;;;;;;5102722;28;20113;-68
2021/01/17 03:18:17;;;;;;;71.07;23.63;;;19.50;32.50;;;;;;5086551;28;20119;-68
2021/01/17 03:20:44;;;;;;;62.40;23.13;;;19.40;32.40;;;;;;5100380;28;20055;-67
2021/01/17 03:23:10;;;;;;;80.97;29.85;;;19.40;32.20;;;;;;5103146;28;20084;-67
2021/01/17 03:25:37;;;;;;;84.28;31.33;;;19.30;32.20;;;;;;5107224;28;20110;-67
2021/01/17 03:28:03;;;;;;;89.40;39.08;;;19.30;32.50;;;;;;5082780;28;20020;-67
2021/01/17 03:30:30;;;;;;;100.65;45.17;;;19.20;32.50;;;;;;5108171;28;20088;-67
2021/01/17 03:32:56;;;;;;;;;;;19.10;32.70;;;;;;5086566;28;20020;-67
2021/01/17 03:35:23;;;;;;;112.40;46.10;;;19.10;32.70;;;;;;5071520;28;20057;-66
2021/01/17 03:37:50;;;;;;;110.88;45.53;;;19.00;33.00;;;;;;5086395;28;20015;-66
2021/01/17 03:40:16;;;;;;;;;;;18.90;33.10;;;;;;5105290;28;20024;-66
2021/01/17 03:42:42;;;;;;;108.93;44.70;;;18.90;33.40;;;;;;5103187;28;20010;-67
2021/01/17 03:45:09;;;;;;;;;;;18.80;33.60;;;;;;5105247;28;20036;-66
2021/01/17 03:47:35;;;;;;;94.97;43.55;;;18.80;34.00;;;;;;5081709;28;20372;-66
2021/01/17 03:50:02;;;;;;;112.88;42.35;;;18.60;33.80;;;;;;5088750;28;20028;-67
2021/01/17 03:52:29;;;;;;;117.18;39.85;;;18.60;34.10;;;;;;5104366;28;20020;-68
2021/01/17 03:54:55;;;;;;;;;;;18.60;34.30;;;;;;5086661;28;20028;-67
2021/01/17 03:57:21;;;;;;;97.68;31.85;;;18.60;34.00;;;;;;5091725;28;19984;-67
2021/01/17 03:59:48;;;;;;;80.20;33.38;;;18.50;34.20;;;;;;5088100;28;20496;-67
2021/01/17 04:02:14;;;;;;;;;;;18.50;34.30;;;;;;5111692;28;20023;-65
2021/01/17 04:04:41;;;;;;;106.97;34.65;;;18.50;34.20;;;;;;5086726;28;20456;-67
2021/01/17 04:07:07;;;;;;;;;;;18.50;34.20;;;;;;5089994;28;20042;-66
2021/01/17 04:09:33;;;;;;;103.03;33.40;;;18.40;34.40;;;;;;5102963;28;19990;-65
2021/01/17 04:12:00;;;;;;;;;;;18.30;34.40;;;;;;5094424;28;20019;-66
2021/01/17 04:14:26;;;;;;;92.45;30.23;;;18.30;34.20;;;;;;5099952;28;19933;-66
2021/01/17 04:16:53;;;;;;;;;;;18.30;34.00;;;;;;5105622;28;20081;-66
2021/01/17 04:19:19;;;;;;;99.35;31.92;;;18.20;34.30;;;;;;5105252;28;19914;-67
2021/01/17 04:21:47;;;;;;;118.50;34.35;;;18.20;34.30;;;;;;5106719;28;20024;-66
2021/01/17 04:24:14;;;;;;;130.32;33.70;;;18.20;34.50;;;;;;5106268;28;20396;-67
2021/01/17 04:26:40;;;;;;;113.55;32.35;;;18.20;34.50;;;;;;5102201;28;20032;-66
2021/01/17 04:29:07;;;;;;;96.85;31.15;;;18.20;34.80;;;;;;5106250;28;20112;-66
2021/01/17 04:31:43;;;;;;;;;;;18.10;34.80;;;;;;5085872;28;20079;-66
2021/01/17 04:34:10;;;;;;;117.03;33.60;;;18.10;34.70;;;;;;5085617;28;19916;-67
2021/01/17 04:36:45;;;;;;;112.63;33.70;;;18.10;34.50;;;;;;5105452;28;20429;-67
2021/01/17 04:39:11;;;;;;;119.20;38.55;;;18.10;34.40;;;;;;5104863;28;20023;-66
2021/01/17 04:41:40;;;;;;;;;;;18.00;34.20;;;;;;5104130;28;20023;-67
2021/01/17 04:44:09;;;;;;;127.20;39.83;;;18.00;34.10;;;;;;5099900;28;19990;-66
2021/01/17 04:46:38;;;;;;;134.00;41.25;;;18.00;34.80;;;;;;5105920;28;20127;-67
2021/01/17 04:49:08;;;;;;;120.53;39.45;;;18.00;34.60;;;;;;5106833;28;20039;-66
2021/01/17 04:51:35;;;;;;;122.82;37.80;;;17.90;34.60;;;;;;5106154;28;20043;-67
2021/01/17 04:54:05;;;;;;;119.90;34.88;;;17.90;34.70;;;;;;5102680;28;20024;-68
2021/01/17 04:56:38;;;;;;;118.75;32.20;;;17.90;34.50;;;;;;5106753;28;20611;-66
2021/01/17 04:59:12;;;;;;;104.47;31.80;;;17.80;34.70;;;;;;5085075;28;20023;-66
2021/01/17 05:01:51;;;;;;;93.82;32.85;;;17.80;35.00;;;;;;5108548;28;20031;-66
2021/01/17 05:04:51;;;;;;;98.70;29.83;;;17.80;35.30;;;;;;5108590;28;20314;-67
2021/01/17 05:07:24;;;;;;;98.25;30.25;;;17.70;34.90;;;;;;5079886;28;20028;-66
2021/01/17 05:10:06;;;;;;;119.78;31.48;;;17.60;35.30;;;;;;5106082;28;20024;-69
2021/01/17 05:12:54;;;;;;;118.55;34.35;;;17.60;35.20;;;;;;5109052;28;20039;-66
2021/01/17 05:15:23;;;;;;;102.90;33.47;;;17.50;35.10;;;;;;5106903;27;20063;-65
2021/01/17 05:17:54;;;;;;;110.63;35.35;;;17.60;34.60;;;;;;5110262;27;20111;-65
2021/01/17 05:20:22;;;;;;;141.48;37.47;;;17.50;34.30;;;;;;5105787;28;20023;-65
2021/01/17 05:22:50;;;;;;;124.88;35.13;;;17.50;34.60;;;;;;5106433;28;20077;-67
2021/01/17 05:25:20;;;;;;;121.18;35.58;;;17.50;34.60;;;;;;5090467;28;20032;-67
2021/01/17 05:27:50;;;;;;;105.72;34.00;;;17.50;34.60;;;;;;5108584;28;20028;-66
2021/01/17 05:30:17;;;;;;;134.68;35.85;;;17.40;34.30;;;;;;5106854;28;20488;-67
2021/01/17 05:32:49;;;;;;;121.30;34.92;;;17.40;34.30;;;;;;5106946;28;20020;-67
2021/01/17 05:35:18;;;;;;;135.02;36.05;;;17.30;34.30;;;;;;5091258;28;20225;-66
2021/01/17 05:37:52;;;;;;;134.65;37.42;;;17.30;34.20;;;;;;5104509;28;20032;-66
2021/01/17 05:40:20;;;;;;;152.15;38.10;;;17.30;34.20;;;;;;5088521;28;20032;-65
2021/01/17 05:42:49;;;;;;;157.43;38.28;;;17.30;34.60;;;;;;5091250;28;20028;-67
2021/01/17 05:45:21;;;;;;;123.07;36.78;;;17.30;34.40;;;;;;5088368;28;20031;-66
2021/01/17 05:48:06;;;;;;;127.55;38.50;;;17.30;34.40;;;;;;5109484;28;20027;-67
2021/01/17 05:50:35;;;;;;;133.10;38.25;;;17.20;33.90;;;;;;5107607;28;20081;-67
2021/01/17 05:53:03;;;;;;;145.55;39.10;;;17.20;33.70;;;;;;5094039;28;20118;-66
2021/01/17 05:55:44;;;;;;;150.52;41.38;;;17.20;33.70;;;;;;5109912;28;20016;-66
2021/01/17 05:58:27;;;;;;;148.55;40.97;;;17.10;34.20;;;;;;5088874;28;20176;-66
2021/01/17 06:01:16;;;;;;;130.68;38.40;;;17.10;34.40;;;;;;5108632;28;20063;-66
2021/01/17 06:03:50;;;;;;;147.73;42.30;;;17.10;34.50;;;;;;5102005;28;20439;-66
2021/01/17 06:06:37;;;;;;;161.43;41.33;;;17.00;33.90;;;;;;5098167;28;20488;-67
2021/01/17 06:09:05;;;;;;;140.20;38.67;;;17.00;33.50;;;;;;5105069;28;20092;-67
2021/01/17 06:11:32;;;;;;;138.35;37.20;;;17.00;33.30;;;;;;5100407;27;20028;-66
2021/01/17 06:14:03;;;;;;;130.75;36.00;;;17.00;33.80;;;;;;5107734;28;20030;-67
2021/01/17 06:16:34;;;;;;;130.00;31.73;;;17.00;33.60;;;;;;5108190;28;20023;-67
2021/01/17 06:19:04;;;;;;;116.68;32.45;;;17.00;33.10;;;;;;5109198;28;20020;-67
2021/01/17 06:21:32;;;;;;;126.88;32.40;;;17.00;32.70;;;;;;5092556;28;20028;-67
2021/01/17 06:24:27;;;;;;;109.03;28.77;;;16.90;32.90;;;;;;5097036;28;20519;-66
2021/01/17 06:26:54;;;;;;;112.90;28.73;;;17.00;32.70;;;;;;5083400;27;20522;-67
2021/01/17 06:29:37;;;;;;;93.53;26.20;;;16.90;32.60;;;;;;5106825;28;20461;-67
2021/01/17 06:32:18;;;;;;;118.53;28.75;;;16.90;31.70;;;;;;5087967;28;20027;-68
2021/01/17 06:34:47;;;;;;;107.00;27.60;;;16.80;31.10;;;;;;5096347;28;20043;-68
2021/01/17 06:37:15;;;;;;;91.88;24.75;;;16.80;31.30;;;;;;5116330;27;20046;-67
2021/01/17 06:39:44;;;;;;;90.18;21.73;;;16.80;31.40;;;;;;5102461;28;20027;-68
2021/01/17 06:42:13;;;;;;;71.65;18.50;;;16.70;30.40;;;;;;5088768;28;20028;-68
2021/01/17 06:44:40;;;;;;;87.80;19.15;;;16.80;29.40;;;;;;5106185;28;20388;-67
2021/01/17 06:47:19;;;;;;;108.20;21.42;;;16.80;28.80;;;;;;5106499;28;20464;-67
2021/01/17 06:49:50;;;;;;;85.50;19.10;;;16.80;28.90;;;;;;5103966;28;20016;-67
2021/01/17 06:52:17;;;;;;;87.85;21.13;;;16.80;29.30;;;;;;5085346;28;20058;-68
2021/01/17 06:54:49;;;;;;;76.85;19.83;;;16.80;29.50;;;;;;5104570;28;20053;-67
2021/01/17 06:57:16;;;;;;;84.30;22.25;;;16.80;29.30;;;;;;5085713;28;20032;-68
2021/01/17 06:59:45;;;;;;;112.35;23.67;;;16.70;29.40;;;;;;5085861;28;20093;-67
2021/01/17 07:02:11;;;;;;;126.82;26.13;;;16.70;29.80;;;;;;5102882;28;20032;-68
2021/01/17 07:04:48;;;;;;;108.72;26.00;;;16.70;29.80;;;;;;5105458;28;20042;-66
2021/01/17 07:07:41;;;;;;;85.18;23.55;;;16.70;29.20;;;;;;5107271;28;20031;-66
2021/01/17 07:10:10;;;;;;;175.18;26.42;;;16.70;28.60;;;;;;5103978;28;20043;-69
2021/01/17 07:13:02;;;;;;;128.05;24.58;;;16.70;28.30;;;;;;5103073;28;20027;-68
2021/01/17 07:15:34;;;;;;;74.25;17.88;;;16.70;28.60;;;;;;5095969;28;20357;-69
2021/01/17 07:18:11;;;;;;;73.57;11.18;;;16.60;27.70;;;;;;5092994;28;20593;-68
2021/01/17 07:20:44;;;;;;;;;;;16.70;25.90;;;;;;5094010;28;20039;-68
2021/01/17 07:23:16;;;;;;;29.35;7.45;;;16.90;25.20;;;;;;5085959;28;19977;-68
2021/01/17 07:25:48;;;;;;;33.92;7.97;;;16.90;25.70;;;;;;5090178;28;20039;-67
2021/01/17 07:28:16;;;;;;;34.28;7.65;;;17.00;25.90;;;;;;5101563;27;20020;-67
2021/01/17 07:30:54;;;;;;;24.85;6.80;;;17.00;26.10;;;;;;5087580;28;20507;-68
2021/01/17 07:33:24;;;;;;;28.05;7.78;;;17.00;26.10;;;;;;5107861;28;20019;-68
2021/01/17 07:35:52;;;;;;;25.00;7.10;;;16.90;25.90;;;;;;5106577;28;20030;-67
2021/01/17 07:38:21;;;;;;;30.98;8.13;;;16.90;26.00;;;;;;5106227;28;20031;-66
2021/01/17 07:41:02;;;;;;;22.35;7.20;;;16.90;26.40;;;;;;5105660;28;20036;-70
2021/01/17 07:43:30;;;;;;;26.77;6.93;;;16.90;27.10;;;;;;5104653;28;20038;-66
2021/01/17 07:46:03;;;;;;;27.92;8.13;;;16.80;26.70;;;;;;5090233;28;21240;-66
2021/01/17 07:48:31;;;;;;;33.03;10.35;;;16.80;27.10;;;;;;5104398;28;20020;-66
2021/01/17 07:51:01;;;;;;;36.70;9.98;;;16.70;27.00;;;;;;5100428;28;20036;-65
2021/01/17 07:53:34;;;;;;;37.47;7.78;;;16.60;27.20;;;;;;5101575;28;20274;-67
2021/01/17 07:56:09;;;;;;;33.33;8.68;;;16.50;27.80;;;;;;5103695;28;20058;-65
2021/01/17 07:58:43;;;;;;;38.50;8.23;;;16.40;27.80;;;;;;5104047;28;20134;-66
2021/01/17 08:01:32;;;;;;;35.53;7.80;;;16.40;27.70;;;;;;5101284;28;20028;-66
2021/01/17 08:04:05;;;;;;;39.00;8.35;;;16.40;28.20;;;;;;5103491;28;20026;-67
2021/01/17 08:06:37;;;;;;;29.33;9.50;;;16.30;28.10;;;;;;5104386;28;20031;-65
2021/01/17 08:09:11;;;;;;;26.63;8.55;;;16.20;27.90;;;;;;5103180;28;20111;-65
2021/01/17 08:11:42;;;;;;;24.77;7.82;;;16.10;28.20;;;;;;5102578;28;20490;-65
2021/01/17 08:14:28;;;;;;;19.80;7.50;;;16.00;28.50;;;;;;5082811;28;20038;-66
2021/01/17 08:17:14;;;;;;;36.58;8.02;;;16.00;28.30;;;;;;5102515;28;20030;-66
2021/01/17 08:19:43;;;;;;;35.58;7.97;;;16.00;28.90;;;;;;5104823;28;20055;-65
2021/01/17 08:22:21;;;;;;;28.23;8.18;;;15.90;29.30;;;;;;5102145;28;20052;-64
2021/01/17 08:25:03;;;;;;;30.85;8.48;;;15.80;29.60;;;;;;5102261;28;20024;-65
2021/01/17 08:27:34;;;;;;;43.67;8.43;;;15.80;29.30;;;;;;5104263;28;20051;-65
2021/01/17 08:30:06;;;;;;;31.45;6.88;;;15.80;29.20;;;;;;5106507;27;20026;-65
2021/01/17 08:32:45;;;;;;;31.02;7.53;;;15.70;29.60;;;;;;5108158;28;20040;-66
2021/01/17 08:35:22;;;;;;;28.13;7.43;;;15.70;29.70;;;;;;5109220;27;20449;-65
2021/01/17 08:37:49;;;;;;;;;;;15.60;30.30;;;;;;5089576;27;20043;-66
2021/01/17 08:40:28;;;;;;;26.75;7.70;;;15.50;30.10;;;;;;5088220;28;20364;-65
2021/01/17 08:42:59;;;;;;;28.27;7.90;;;15.50;30.10;;;;;;5108012;28;20077;-65
2021/01/17 08:45:28;;;;;;;25.45;7.20;;;15.40;30.30;;;;;;5107114;28;20059;-66
2021/01/17 08:48:01;;;;;;;23.23;6.38;;;15.40;30.80;;;;;;5109988;28;20324;-67
2021/01/17 08:50:39;;;;;;;34.33;6.78;;;15.40;30.60;;;;;;5108663;28;20109;-65
2021/01/17 08:53:09;;;;;;;37.00;6.95;;;15.40;31.00;;;;;;5107204;27;20472;-65
2021/01/17 08:55:40;;;;;;;30.05;6.40;;;15.40;31.20;;;;;;5109594;27;20484;-66
2021/01/17 08:58:08;;;;;;;18.88;6.32;;;15.30;31.30;;;;;;5109806;27;20493;-65
2021/01/17 09:00:49;;;;;;;26.38;6.00;;;15.30;31.20;;;;;;5105779;28;20484;-66
2021/01/17 09:03:33;;;;;;;25.50;6.57;;;15.20;31.60;;;;;;5106102;28;20088;-65
2021/01/17 09:06:01;;;;;;;24.92;5.85;;;15.10;31.40;;;;;;5108518;28;20035;-65
2021/01/17 09:08:29;;;;;;;30.48;6.13;;;15.10;31.80;;;;;;5089739;28;20024;-66
2021/01/17 09:10:57;;;;;;;31.05;7.15;;;15.10;32.20;;;;;;5109609;28;20028;-66
2021/01/17 09:13:32;;;;;;;31.33;7.28;;;15.00;32.50;;;;;;5092262;28;20125;-66
2021/01/17 09:16:04;;;;;;;27.80;6.10;;;15.00;32.20;;;;;;5108696;28;20046;-66
2021/01/17 09:18:37;;;;;;;30.13;6.78;;;15.00;32.50;;;;;;5107705;28;20065;-65
2021/01/17 09:21:06;;;;;;;31.52;6.60;;;14.90;32.50;;;;;;5109007;28;20106;-66
2021/01/17 09:23:38;;;;;;;18.88;6.90;;;14.90;32.30;;;;;;5089105;28;20068;-65
2021/01/17 09:26:05;;;;;;;29.85;6.95;;;14.90;32.10;;;;;;5089595;28;20028;-65
2021/01/17 09:28:32;;;;;;;33.85;7.63;;;14.80;32.30;;;;;;5089933;27;20016;-65
2021/01/17 09:31:03;;;;;;;34.80;7.63;;;14.90;33.10;;;;;;5107092;28;20451;-65
2021/01/17 09:33:30;;;;;;;31.02;7.40;;;14.80;33.30;;;;;;5105947;28;20039;-66
2021/01/17 09:35:56;;;;;;;31.90;7.97;;;14.80;33.60;;;;;;5104360;28;20050;-66
2021/01/17 09:38:26;;;;;;;30.88;8.48;;;14.80;33.40;;;;;;5088938;28;20076;-66
2021/01/17 09:40:59;;;;;;;30.60;8.23;;;14.70;33.60;;;;;;5087708;28;20039;-65
2021/01/17 09:43:26;;;;;;;42.42;8.88;;;14.60;33.80;;;;;;5104653;27;20026;-65
2021/01/17 09:45:57;;;;;;;38.20;9.27;;;14.50;33.50;;;;;;5091806;28;20518;-66
2021/01/17 09:48:25;;;;;;;36.25;10.30;;;14.50;33.60;;;;;;5090605;28;20067;-66
2021/01/17 09:50:52;;;;;;;41.00;10.65;;;14.50;33.90;;;;;;5105322;28;20139;-67
2021/01/17 09:53:19;;;;;;;46.65;11.57;;;14.40;33.70;;;;;;5104816;28;20486;-67
2021/01/17 09:55:47;;;;;;;39.17;10.30;;;14.40;34.00;;;;;;5103818;28;20058;-66
2021/01/17 09:58:16;;;;;;;31.17;10.32;;;14.40;34.20;;;;;;5085572;28;20046;-66
2021/01/17 10:00:43;;;;;;;36.13;11.35;;;14.40;33.90;;;;;;5104315;28;20042;-65
2021/01/17 10:03:17;;;;;;;41.75;11.25;;;14.30;33.80;;;;;;5093327;28;20131;-67
2021/01/17 10:05:45;;;;;;;45.03;13.10;;;14.30;33.90;;;;;;5091360;28;20541;-65
2021/01/17 10:08:13;;;;;;;57.25;12.80;;;14.30;33.20;;;;;;5106567;28;20039;-65
2021/01/17 10:10:49;;;;;;;49.40;13.45;;;14.40;33.70;;;;;;5082195;28;20495;-65
2021/01/17 10:13:15;;;;;;;44.72;12.63;;;14.40;33.70;;;;;;5101938;28;20030;-65
2021/01/17 10:15:42;;;;;;;;;;;14.50;33.80;;;;;;5104574;28;20058;-66
2021/01/17 10:18:11;;;;;;;50.33;13.32;;;14.50;34.00;;;;;;5088119;28;19938;-66
2021/01/17 10:20:39;;;;;;;53.88;14.50;;;14.50;34.50;;;;;;5105360;27;20100;-66
2021/01/17 10:23:09;;;;;;;59.58;14.90;;;14.50;35.10;;;;;;5098497;28;20092;-66
2021/01/17 10:25:37;;;;;;;50.17;14.57;;;14.40;34.50;;;;;;5087821;28;20508;-66
2021/01/17 10:28:10;;;;;;;47.78;13.98;;;14.40;34.70;;;;;;5085414;28;20052;-66
2021/01/17 10:30:42;;;;;;;57.80;15.07;;;14.30;34.20;;;;;;5108550;27;20036;-66
2021/01/17 10:33:11;;;;;;;52.30;14.82;;;14.30;34.70;;;;;;5105361;27;20058;-65
2021/01/17 10:35:42;;;;;;;44.78;14.00;;;14.30;34.70;;;;;;5085315;28;20432;-66
2021/01/17 10:38:10;;;;;;;47.92;13.90;;;14.30;35.20;;;;;;5108524;28;20044;-66
2021/01/17 10:40:39;;;;;;;43.95;13.82;;;14.20;34.60;;;;;;5083887;28;20054;-65
2021/01/17 10:43:24;;;;;;;43.40;14.20;;;14.10;34.90;;;;;;5109444;28;20113;-66
2021/01/17 10:46:04;;;;;;;47.13;14.63;;;14.20;35.40;;;;;;5098245;28;20062;-66
2021/01/17 10:48:38;;;;;;;52.05;13.05;;;14.10;35.60;;;;;;5099597;28;20019;-66
2021/01/17 10:51:08;;;;;;;50.55;14.02;;;14.10;35.30;;;;;;5103726;28;20036;-66
2021/01/17 10:53:49;;;;;;;43.83;14.95;;;14.10;35.30;;;;;;5107089;27;20042;-65
2021/01/17 10:56:20;;;;;;;52.35;14.77;;;14.00;35.20;;;;;;5107611;28;20398;-66
2021/01/17 10:58:48;;;;;;;52.08;14.55;;;14.00;36.00;;;;;;5104513;27;20032;-67
2021/01/17 11:01:15;;;;;;;54.80;15.48;;;14.10;36.00;;;;;;5101195;28;20034;-66
2021/01/17 11:03:43;;;;;;;46.38;14.15;;;14.10;36.10;;;;;;5106361;28;20043;-66
2021/01/17 11:06:14;;;;;;;44.13;13.80;;;14.00;36.10;;;;;;5085185;28;20058;-66
2021/01/17 11:09:02;;;;;;;49.33;13.30;;;14.00;35.70;;;;;;5106497;28;20042;-66
2021/01/17 11:11:30;;;;;;;47.55;13.88;;;14.00;35.80;;;;;;5087057;28;20567;-66
2021/01/17 11:14:23;;;;;;;59.10;15.88;;;14.10;36.00;;;;;;5108929;28;20074;-69
2021/01/17 11:16:54;;;;;;;50.60;14.13;;;14.00;35.90;;;;;;5081911;28;20455;-65
2021/01/17 11:19:36;;;;;;;45.53;14.25;;;14.00;36.00;;;;;;5104297;27;20133;-65
2021/01/17 11:22:04;;;;;;;42.15;14.18;;;14.00;36.10;;;;;;5102535;28;20059;-65
2021/01/17 11:24:41;;;;;;;57.13;14.95;;;14.00;36.40;;;;;;5105194;28;20041;-65
2021/01/17 11:27:16;;;;;;;48.67;14.07;;;13.90;36.70;;;;;;5104915;28;20085;-65
2021/01/17 11:29:44;;;;;;;49.85;15.88;;;13.90;37.10;;;;;;5083634;28;20038;-65
2021/01/17 11:32:11;;;;;;;52.47;14.65;;;13.80;37.30;;;;;;5104943;28;20122;-65
2021/01/17 11:34:40;;;;;;;61.80;16.70;;;13.90;37.30;;;;;;5103292;28;20273;-65
2021/01/17 11:37:08;;;;;;;46.22;16.73;;;13.80;37.60;;;;;;5090001;28;20486;-65
2021/01/17 11:39:35;;;;;;;43.75;13.80;;;13.90;37.30;;;;;;5086581;28;20480;-65
2021/01/17 11:42:02;;;;;;;46.60;15.20;;;13.70;37.60;;;;;;5087320;28;20030;-65
2021/01/17 11:44:34;;;;;;;51.88;15.35;;;13.70;37.80;;;;;;5087505;28;20027;-65
2021/01/17 11:47:02;;;;;;;65.43;17.30;;;13.70;37.60;;;;;;5105623;28;20470;-65
2021/01/17 11:49:29;;;;;;;56.25;16.05;;;13.70;37.80;;;;;;5105225;28;20475;-65
2021/01/17 11:51:56;;;;;;;57.08;16.02;;;13.60;37.20;;;;;;5104421;28;20483;-65
2021/01/17 11:54:27;;;;;;;59.33;17.40;;;13.60;37.80;;;;;;5106236;28;20045;-65
2021/01/17 11:57:11;;;;;;;55.13;18.40;;;13.60;38.40;;;;;;5102108;28;20044;-65
2021/01/17 11:59:39;;;;;;;44.92;17.02;;;13.60;38.10;;;;;;5104997;28;20029;-65
2021/01/17 12:02:19;;;;;;;55.17;17.83;;;13.60;38.20;;;;;;5105202;28;20023;-66
2021/01/17 12:04:57;;;;;;;58.47;19.40;;;13.60;37.80;;;;;;5102092;28;20050;-65
2021/01/17 12:07:24;;;;;;;51.20;17.17;;;13.50;37.10;;;;;;5105498;28;20077;-65
2021/01/17 12:10:00;;;;;;;;;;;13.60;37.90;;;;;;5106394;28;20031;-65
2021/01/17 12:12:37;;;;;;;57.67;18.77;;;13.50;37.50;;;;;;5096820;28;20375;-65
2021/01/17 12:15:06;;;;;;;55.13;17.48;;;13.50;36.80;;;;;;5080754;28;20239;-65
2021/01/17 12:17:32;;;;;;;51.25;17.13;;;13.50;35.70;;;;;;5099382;28;20038;-65
2021/01/17 12:19:58;;;;;;;;;;;13.60;36.40;;;;;;5091441;28;20051;-65
2021/01/17 12:22:25;;;;;;;51.80;16.67;;;13.60;36.80;;;;;;5104039;28;19977;-66
2021/01/17 12:24:51;;;;;;;;;;;13.60;36.70;;;;;;5105255;28;20040;-65
2021/01/17 12:27:18;;;;;;;48.78;16.50;;;13.50;36.50;;;;;;5104954;28;20314;-66
2021/01/17 12:29:44;;;;;;;;;;;13.50;36.30;;;;;;5105127;28;20536;-65
2021/01/17 12:32:10;;;;;;;36.33;13.57;;;13.60;36.40;;;;;;5106729;28;19920;-64
2021/01/17 12:34:37;;;;;;;38.40;14.10;;;13.60;36.40;;;;;;5107992;28;20377;-65
2021/01/17 12:37:03;;;;;;;;;;;13.60;36.50;;;;;;5090529;28;20508;-66
2021/01/17 12:39:29;;;;;;;36.55;13.18;;;13.60;36.30;;;;;;5109304;28;19922;-66
2021/01/17 12:41:58;;;;;;;;;;;13.60;36.30;;;;;;5087190;28;20042;-65
2021/01/17 12:44:24;;;;;;;45.45;12.13;;;13.50;36.10;;;;;;5103885;28;20391;-65
2021/01/17 12:46:51;;;;;;;37.17;12.02;;;13.60;36.70;;;;;;5102797;28;20043;-65
2021/01/17 12:49:18;;;;;;;;;;;13.50;36.30;;;;;;5105946;28;20070;-65
2021/01/17 12:51:45;;;;;;;43.87;12.13;;;13.50;36.40;;;;;;5104550;28;20020;-66